Time;durP1;ratioP1;P1;durP2;ratioP2;P2;SDS_P1;SDS_P2;PMS_P1;PMS_P2;Temp;Humidity;BMP_temperature;BMP_pressure;BME280_temperature;BME280_humidity;BME280_pressure;Samples;Min_cycle;Max_cycle;Signal;HPM_P1;HPM_P2
2023/05/25 00:01:19;;;;;;;16.27;7.40;;;11.00;99.90;;;;;;5055701;28;20476;-80
2023/05/25 00:03:45;;;;;;;11.17;6.53;;;11.00;99.90;;;;;;5056498;28;21176;-80
2023/05/25 00:06:14;;;;;;;11.63;7.07;;;10.90;99.90;;;;;;5058372;28;20529;-80
2023/05/25 00:08:41;;;;;;;11.73;7.23;;;10.90;99.90;;;;;;5060216;28;20461;-80
2023/05/25 00:11:09;;;;;;;11.00;6.60;;;10.80;99.90;;;;;;5059441;28;20479;-80
2023/05/25 00:13:36;;;;;;;11.60;6.97;;;10.80;99.90;;;;;;5060311;28;20512;-80
2023/05/25 00:16:03;;;;;;;16.63;7.53;;;10.70;99.90;;;;;;5059383;28;20458;-80
2023/05/25 00:18:29;;;;;;;16.47;6.80;;;10.70;99.90;;;;;;5059894;28;20456;-80
2023/05/25 00:20:57;;;;;;;12.77;6.03;;;10.60;99.90;;;;;;5059025;28;20546;-80
2023/05/25 00:23:24;;;;;;;12.90;7.00;;;10.60;99.90;;;;;;5059579;28;20483;-80
2023/05/25 00:25:50;;;;;;;14.30;6.37;;;10.60;99.90;;;;;;5059712;28;20462;-80
2023/05/25 00:28:18;;;;;;;13.53;6.17;;;10.50;99.90;;;;;;5059022;28;20459;-79
2023/05/25 00:30:45;;;;;;;17.83;8.20;;;10.50;99.90;;;;;;5058631;28;20558;-80
2023/05/25 00:33:12;;;;;;;13.70;7.70;;;10.50;99.90;;;;;;5058928;28;20491;-80
2023/05/25 00:35:41;;;;;;;11.80;7.20;;;10.40;99.90;;;;;;5059387;28;20831;-79
2023/05/25 00:38:12;;;;;;;14.53;7.60;;;10.40;99.90;;;;;;5058603;28;20451;-79
2023/05/25 00:40:40;;;;;;;14.33;6.43;;;10.40;99.90;;;;;;5059013;28;20475;-79
2023/05/25 00:43:08;;;;;;;12.67;6.47;;;10.40;99.90;;;;;;5058790;28;20459;-79
2023/05/25 00:45:36;;;;;;;13.83;7.07;;;10.30;99.90;;;;;;5059033;28;20987;-79
2023/05/25 00:48:04;;;;;;;9.30;6.80;;;10.30;99.90;;;;;;5058830;28;20459;-79
2023/05/25 00:50:37;;;;;;;17.93;7.77;;;10.30;99.90;;;;;;5058875;28;20482;-80
2023/05/25 00:53:05;;;;;;;11.53;6.77;;;10.20;99.90;;;;;;5058835;28;20480;-80
2023/05/25 00:55:35;;;;;;;10.83;7.33;;;10.20;99.90;;;;;;5058373;28;20459;-80
2023/05/25 00:58:04;;;;;;;19.73;8.57;;;10.10;99.90;;;;;;5059138;28;20452;-79
2023/05/25 01:00:34;;;;;;;12.70;7.37;;;10.10;99.90;;;;;;5058589;28;20475;-80
2023/05/25 01:03:10;;;;;;;19.00;8.47;;;10.00;99.90;;;;;;5058041;28;20448;-80
2023/05/25 01:05:41;;;;;;;16.50;8.53;;;10.00;99.90;;;;;;5059246;28;20469;-80
2023/05/25 01:08:09;;;;;;;14.37;8.20;;;9.90;99.90;;;;;;5057401;28;20480;-79
2023/05/25 01:10:38;;;;;;;16.20;8.50;;;9.90;99.90;;;;;;5059893;28;20478;-79
2023/05/25 01:13:08;;;;;;;18.60;10.03;;;9.90;99.90;;;;;;5058839;28;20479;-79
2023/05/25 01:15:37;;;;;;;11.93;7.87;;;9.90;99.90;;;;;;5058470;28;20452;-78
2023/05/25 01:18:05;;;;;;;18.63;7.70;;;9.90;99.90;;;;;;5057647;28;20452;-78
2023/05/25 01:20:32;;;;;;;15.17;7.30;;;9.90;99.90;;;;;;5057482;28;20486;-78
2023/05/25 01:23:06;;;;;;;21.40;8.30;;;9.90;99.90;;;;;;5056429;28;20449;-78
2023/05/25 01:25:39;;;;;;;13.20;7.70;;;9.90;99.90;;;;;;5057951;28;21003;-78
2023/05/25 01:28:11;;;;;;;21.87;8.53;;;9.80;99.90;;;;;;5056296;28;20448;-78
2023/05/25 01:30:42;;;;;;;13.83;8.27;;;9.80;99.90;;;;;;5057388;28;21037;-78
2023/05/25 01:33:10;;;;;;;19.50;8.30;;;9.70;99.90;;;;;;5056767;28;20494;-78
2023/05/25 01:35:38;;;;;;;16.03;7.13;;;9.70;99.90;;;;;;5057684;28;20456;-78
2023/05/25 01:38:07;;;;;;;11.63;7.30;;;9.70;99.90;;;;;;5057418;28;20960;-78
2023/05/25 01:40:34;;;;;;;15.40;8.53;;;9.70;99.90;;;;;;5057367;28;20474;-78
2023/05/25 01:43:00;;;;;;;13.70;7.63;;;9.70;99.90;;;;;;5056720;28;20448;-78
2023/05/25 01:45:28;;;;;;;14.73;7.10;;;9.60;99.90;;;;;;5056814;28;20455;-79
2023/05/25 01:48:06;;;;;;;12.47;8.13;;;9.60;99.90;;;;;;5056949;28;20456;-79
2023/05/25 01:50:39;;;;;;;10.73;7.80;;;9.60;99.90;;;;;;5057477;28;20902;-78
2023/05/25 01:53:12;;;;;;;15.70;8.10;;;9.60;99.90;;;;;;5056988;28;20471;-78
2023/05/25 01:55:46;;;;;;;17.77;8.00;;;9.60;99.90;;;;;;5057548;28;20452;-78
2023/05/25 01:58:15;;;;;;;16.83;9.17;;;9.50;99.90;;;;;;5057769;28;20448;-78
2023/05/25 02:00:43;;;;;;;14.23;8.10;;;9.60;99.90;;;;;;5056975;28;20509;-78
2023/05/25 02:03:11;;;;;;;14.93;8.53;;;9.60;99.90;;;;;;5057318;28;20456;-78
2023/05/25 02:05:41;;;;;;;14.60;7.80;;;9.60;99.90;;;;;;5057716;28;20547;-78
2023/05/25 02:08:09;;;;;;;10.73;7.30;;;9.60;99.90;;;;;;5056247;28;20462;-78
2023/05/25 02:10:36;;;;;;;12.83;8.27;;;9.60;99.90;;;;;;5055906;28;20478;-77
2023/05/25 02:13:03;;;;;;;13.03;8.57;;;9.60;99.90;;;;;;5055978;28;20847;-78
2023/05/25 02:15:32;;;;;;;16.17;8.50;;;9.60;99.90;;;;;;5056974;28;20831;-78
2023/05/25 02:17:59;;;;;;;13.50;7.53;;;9.60;99.90;;;;;;5056134;28;20491;-78
2023/05/25 02:20:27;;;;;;;10.83;7.73;;;9.60;99.90;;;;;;5056029;28;20491;-77
2023/05/25 02:22:54;;;;;;;13.83;7.97;;;9.50;99.90;;;;;;5054756;28;20459;-78
2023/05/25 02:25:22;;;;;;;20.83;8.43;;;9.50;99.90;;;;;;5056226;28;20465;-78
2023/05/25 02:27:49;;;;;;;13.43;8.73;;;9.50;99.90;;;;;;5055600;28;20919;-78
2023/05/25 02:30:15;;;;;;;13.13;8.33;;;9.50;99.90;;;;;;5054936;28;20509;-77
2023/05/25 02:32:42;;;;;;;15.57;8.27;;;9.50;99.90;;;;;;5055210;28;20956;-77
2023/05/25 02:35:10;;;;;;;14.97;8.40;;;9.50;99.90;;;;;;5060648;28;20900;-77
2023/05/25 02:37:37;;;;;;;13.67;8.00;;;9.40;99.90;;;;;;5060441;28;20463;-77
2023/05/25 02:40:05;;;;;;;12.77;8.20;;;9.40;99.90;;;;;;5057121;28;20475;-78
2023/05/25 02:42:33;;;;;;;17.00;8.70;;;9.40;99.90;;;;;;5055341;28;20459;-78
2023/05/25 02:44:59;;;;;;;15.80;8.53;;;9.40;99.90;;;;;;5054749;28;20451;-78
2023/05/25 02:47:26;;;;;;;12.63;8.17;;;9.40;99.90;;;;;;5055745;28;20535;-78
2023/05/25 02:49:53;;;;;;;11.70;7.20;;;9.30;99.90;;;;;;5055181;28;20610;-78
2023/05/25 02:52:21;;;;;;;12.27;8.30;;;9.30;99.90;;;;;;5054876;28;20466;-78
2023/05/25 02:54:48;;;;;;;14.97;7.70;;;9.30;99.90;;;;;;5055240;28;20483;-78
2023/05/25 02:57:15;;;;;;;16.60;7.90;;;9.30;99.90;;;;;;5054865;28;20538;-78
2023/05/25 02:59:43;;;;;;;17.00;9.13;;;9.30;99.90;;;;;;5054805;28;20456;-78
2023/05/25 03:02:10;;;;;;;15.60;8.70;;;9.20;99.90;;;;;;5055162;28;20456;-78
2023/05/25 03:04:38;;;;;;;11.83;8.40;;;9.20;99.90;;;;;;5055670;28;20479;-78
2023/05/25 03:07:05;;;;;;;16.13;8.87;;;9.20;99.90;;;;;;5054543;28;20471;-77
2023/05/25 03:09:32;;;;;;;9.50;7.97;;;9.20;99.90;;;;;;5054017;28;20453;-78
2023/05/25 03:11:58;;;;;;;12.17;8.17;;;9.20;99.90;;;;;;5055123;28;20522;-77
2023/05/25 03:14:25;;;;;;;12.43;8.00;;;9.10;99.90;;;;;;5053685;28;20696;-78
2023/05/25 03:16:53;;;;;;;17.37;8.13;;;9.10;99.90;;;;;;5055967;28;20456;-78
2023/05/25 03:19:20;;;;;;;15.60;8.17;;;9.10;99.90;;;;;;5056564;28;20466;-78
2023/05/25 03:21:47;;;;;;;13.30;8.57;;;9.20;99.90;;;;;;5056546;28;20509;-79
2023/05/25 03:24:14;;;;;;;20.07;7.97;;;9.10;99.90;;;;;;5055985;28;20550;-79
2023/05/25 03:26:41;;;;;;;12.17;7.93;;;9.10;99.90;;;;;;5043124;28;20459;-79
2023/05/25 03:29:07;;;;;;;13.50;7.53;;;9.10;99.90;;;;;;5054741;28;20446;-79
2023/05/25 03:31:34;;;;;;;11.60;7.33;;;9.10;99.90;;;;;;5056676;28;20562;-79
2023/05/25 03:34:03;;;;;;;12.80;7.73;;;9.10;99.90;;;;;;5055024;28;20506;-78
2023/05/25 03:36:32;;;;;;;15.83;8.33;;;9.10;99.90;;;;;;5054132;28;20806;-78
2023/05/25 03:38:59;;;;;;;15.67;7.87;;;9.10;99.90;;;;;;5052508;28;20470;-79
2023/05/25 03:41:26;;;;;;;15.53;9.00;;;9.10;99.90;;;;;;5050167;28;21003;-78
2023/05/25 03:43:53;;;;;;;19.70;9.43;;;9.10;99.90;;;;;;5040726;28;20477;-78
2023/05/25 03:46:20;;;;;;;11.27;7.90;;;9.10;99.90;;;;;;5048815;28;20445;-78
2023/05/25 03:48:47;;;;;;;11.03;8.03;;;9.10;99.90;;;;;;5052880;28;20984;-78
2023/05/25 03:51:15;;;;;;;16.80;7.80;;;9.10;99.90;;;;;;5054246;28;20476;-78
2023/05/25 03:53:42;;;;;;;14.63;8.60;;;9.10;99.90;;;;;;5051061;28;20560;-78
2023/05/25 03:56:08;;;;;;;13.83;7.37;;;9.10;99.90;;;;;;5048542;28;20474;-79
2023/05/25 03:58:35;;;;;;;9.53;7.30;;;9.10;99.90;;;;;;5053319;28;20461;-80
2023/05/25 04:01:02;;;;;;;15.30;7.67;;;9.10;99.90;;;;;;5054690;28;21024;-78
2023/05/25 04:03:31;;;;;;;16.37;8.07;;;9.20;99.90;;;;;;5050194;28;20452;-78
2023/05/25 04:05:59;;;;;;;12.47;7.40;;;9.20;99.90;;;;;;5051188;28;20538;-77
2023/05/25 04:08:28;;;;;;;11.93;7.63;;;9.20;99.90;;;;;;5052790;28;20508;-78
2023/05/25 04:10:56;;;;;;;11.17;8.30;;;9.20;99.90;;;;;;5052966;28;20475;-78
2023/05/25 04:13:23;;;;;;;11.17;7.43;;;9.30;99.90;;;;;;5052292;28;20548;-78
2023/05/25 04:15:50;;;;;;;15.03;8.17;;;9.30;99.90;;;;;;5053475;28;20537;-78
2023/05/25 04:18:17;;;;;;;11.70;7.20;;;9.40;99.90;;;;;;5053817;28;20448;-78
2023/05/25 04:20:46;;;;;;;14.33;8.43;;;9.40;99.90;;;;;;5049952;28;20498;-79
2023/05/25 04:23:13;;;;;;;15.87;8.23;;;9.40;99.90;;;;;;5052422;28;20451;-79
2023/05/25 04:25:41;;;;;;;18.10;8.47;;;9.40;99.90;;;;;;5051957;28;20455;-78
2023/05/25 04:28:11;;;;;;;15.37;8.77;;;9.50;99.90;;;;;;5050990;28;20455;-77
2023/05/25 04:30:38;;;;;;;12.00;7.10;;;9.50;99.90;;;;;;5053070;28;20494;-78
2023/05/25 04:33:05;;;;;;;14.87;7.87;;;9.60;99.90;;;;;;5052077;28;20537;-77
2023/05/25 04:35:32;;;;;;;16.87;9.07;;;9.60;99.90;;;;;;5050816;28;20459;-78
2023/05/25 04:38:01;;;;;;;14.50;7.67;;;9.70;99.90;;;;;;5051558;28;20453;-78
2023/05/25 04:40:28;;;;;;;13.53;7.67;;;9.70;99.90;;;;;;5051032;28;20547;-78
2023/05/25 04:42:57;;;;;;;12.33;7.90;;;9.70;99.90;;;;;;5050487;28;20492;-78
2023/05/25 04:45:23;;;;;;;11.37;7.17;;;9.80;99.90;;;;;;5052059;28;20448;-77
2023/05/25 04:47:51;;;;;;;12.93;7.90;;;9.80;99.90;;;;;;5051373;28;20455;-77
2023/05/25 04:50:18;;;;;;;14.10;8.03;;;9.90;99.90;;;;;;5052764;28;20471;-78
2023/05/25 04:52:45;;;;;;;15.07;8.70;;;9.90;99.90;;;;;;5054584;28;20455;-81
2023/05/25 04:55:11;;;;;;;13.80;8.80;;;10.00;99.90;;;;;;5059045;28;20498;-81
2023/05/25 04:57:38;;;;;;;16.70;9.17;;;10.10;99.90;;;;;;5052992;28;20460;-80
2023/05/25 05:00:12;;;;;;;18.70;9.17;;;10.10;99.90;;;;;;5049977;28;20558;-82
2023/05/25 05:02:41;;;;;;;15.63;9.67;;;10.20;99.90;;;;;;5051344;28;21278;-81
2023/05/25 05:05:08;;;;;;;13.10;8.80;;;10.20;99.90;;;;;;5056140;28;20451;-81
2023/05/25 05:07:36;;;;;;;15.47;8.40;;;10.30;99.90;;;;;;5050446;28;20469;-82
2023/05/25 05:10:03;;;;;;;12.27;9.47;;;10.40;99.90;;;;;;5051269;28;20469;-81
2023/05/25 05:12:30;;;;;;;15.97;8.57;;;10.40;99.90;;;;;;5050269;28;20461;-80
2023/05/25 05:14:57;;;;;;;11.93;8.40;;;10.50;99.90;;;;;;5051028;28;20499;-80
2023/05/25 05:17:26;;;;;;;11.67;7.60;;;10.50;99.90;;;;;;5051727;28;20456;-79
2023/05/25 05:19:53;;;;;;;12.27;8.43;;;10.60;99.90;;;;;;5054552;28;20560;-80
2023/05/25 05:22:26;;;;;;;11.40;8.93;;;10.60;99.90;;;;;;5050076;28;20475;-80
2023/05/25 05:24:53;;;;;;;13.00;8.53;;;10.70;99.90;;;;;;5046471;28;20451;-80
2023/05/25 05:27:20;;;;;;;10.53;8.00;;;10.90;99.90;;;;;;5049697;28;20452;-80
2023/05/25 05:29:47;;;;;;;17.03;8.17;;;11.00;99.90;;;;;;5054790;28;20913;-80
2023/05/25 05:32:13;;;;;;;14.00;7.67;;;11.20;99.90;;;;;;5049835;28;20455;-79
2023/05/25 05:34:42;;;;;;;13.00;7.07;;;11.40;99.90;;;;;;5049790;28;20482;-80
2023/05/25 05:37:11;;;;;;;15.53;8.50;;;11.60;99.90;;;;;;5056725;28;20545;-81
2023/05/25 05:39:38;;;;;;;10.60;7.00;;;11.80;99.90;;;;;;5051567;28;20454;-80
2023/05/25 05:42:06;;;;;;;11.83;8.60;;;11.90;99.90;;;;;;5051249;28;20800;-81
2023/05/25 05:44:33;;;;;;;10.73;7.10;;;12.00;99.90;;;;;;5049381;28;20824;-80
2023/05/25 05:47:00;;;;;;;9.60;7.70;;;12.10;95.50;;;;;;5050897;28;20532;-81
2023/05/25 05:49:27;;;;;;;10.10;6.50;;;12.00;92.80;;;;;;5055688;28;20515;-83
2023/05/25 05:51:55;;;;;;;9.57;7.30;;;12.00;99.90;;;;;;5053683;28;20465;-85
2023/05/25 05:54:22;;;;;;;15.80;8.10;;;12.00;99.90;;;;;;5054362;28;20476;-85
2023/05/25 05:56:49;;;;;;;18.70;9.00;;;12.00;99.90;;;;;;5052556;28;20550;-85
2023/05/25 05:59:16;;;;;;;15.00;7.57;;;12.00;84.40;;;;;;5055135;28;20451;-86
2023/05/25 06:01:43;;;;;;;13.73;7.20;;;11.90;70.30;;;;;;5057716;28;20571;-85
2023/05/25 06:04:10;;;;;;;15.77;8.43;;;11.90;98.40;;;;;;5053378;28;20536;-86
2023/05/25 06:06:39;;;;;;;13.20;6.63;;;11.90;99.90;;;;;;5059133;28;20522;-85
2023/05/25 06:09:07;;;;;;;11.97;9.20;;;11.90;99.90;;;;;;5064726;28;20491;-84
2023/05/25 06:11:35;;;;;;;14.70;7.30;;;11.90;99.90;;;;;;5064895;28;20497;-83
2023/05/25 06:14:02;;;;;;;15.80;7.37;;;11.90;99.90;;;;;;5056943;28;20486;-83
2023/05/25 06:16:29;;;;;;;12.40;6.90;;;12.00;99.90;;;;;;5051689;28;20537;-85
2023/05/25 06:18:56;;;;;;;15.93;7.77;;;12.00;99.90;;;;;;5052615;28;20515;-83
2023/05/25 06:21:23;;;;;;;15.00;8.37;;;12.00;99.90;;;;;;5050895;28;20464;-83
2023/05/25 06:23:50;;;;;;;16.50;8.57;;;12.10;99.90;;;;;;5050050;28;20463;-83
2023/05/25 06:26:18;;;;;;;10.97;7.57;;;12.10;99.90;;;;;;5038213;28;20474;-85
2023/05/25 06:28:46;;;;;;;11.80;7.30;;;12.20;99.90;;;;;;5032653;28;20893;-82
2023/05/25 06:31:13;;;;;;;11.03;6.60;;;12.20;98.40;;;;;;5052873;28;20493;-82
2023/05/25 06:33:40;;;;;;;15.67;8.13;;;12.30;97.20;;;;;;5047660;28;20526;-81
2023/05/25 06:36:07;;;;;;;11.83;6.40;;;12.40;99.90;;;;;;5055431;28;20496;-80
2023/05/25 06:38:34;;;;;;;11.80;6.40;;;12.40;94.40;;;;;;5060055;28;20497;-82
2023/05/25 06:41:02;;;;;;;10.30;7.30;;;12.50;99.90;;;;;;5060554;28;20471;-81
2023/05/25 06:43:31;;;;;;;12.47;6.03;;;12.50;94.10;;;;;;5057141;28;20469;-82
2023/05/25 06:45:58;;;;;;;9.27;5.73;;;12.60;50.20;;;;;;5047418;28;20462;-81
2023/05/25 06:48:24;;;;;;;11.33;6.53;;;12.70;51.00;;;;;;5051193;28;20466;-82
2023/05/25 06:50:51;;;;;;;16.13;6.83;;;12.80;28.60;;;;;;5048425;28;20533;-81
2023/05/25 06:53:18;;;;;;;11.33;5.80;;;13.00;32.70;;;;;;5046676;28;20448;-80
2023/05/25 06:55:45;;;;;;;9.97;5.90;;;13.10;1.00;;;;;;5051283;28;20484;-82
2023/05/25 06:58:12;;;;;;;9.20;6.07;;;13.20;7.80;;;;;;5052387;28;20457;-82
2023/05/25 07:00:40;;;;;;;10.00;6.03;;;13.40;10.20;;;;;;5051434;28;21004;-82
2023/05/25 07:03:07;;;;;;;13.57;5.67;;;13.60;1.00;;;;;;5050514;28;20538;-82
2023/05/25 07:05:33;;;;;;;9.40;5.00;;;13.70;1.00;;;;;;5052817;28;20479;-81
2023/05/25 07:08:00;;;;;;;13.33;6.30;;;13.70;1.00;;;;;;5050780;28;20454;-81
2023/05/25 07:10:27;;;;;;;12.37;5.57;;;13.90;1.00;;;;;;5042467;28;20468;-82
2023/05/25 07:12:54;;;;;;;11.37;5.90;;;14.00;1.00;;;;;;5047507;28;20466;-81
2023/05/25 07:15:21;;;;;;;11.30;6.30;;;14.20;1.00;;;;;;5048371;28;20499;-81
2023/05/25 07:17:49;;;;;;;11.30;5.90;;;14.30;1.00;;;;;;5050293;28;20496;-81
2023/05/25 07:20:16;;;;;;;12.57;6.90;;;14.60;1.00;;;;;;5050295;28;20497;-81
2023/05/25 07:22:43;;;;;;;8.07;5.40;;;14.80;1.00;;;;;;5048484;28;20449;-84
2023/05/25 07:25:10;;;;;;;9.67;5.80;;;15.00;1.00;;;;;;5050726;28;20533;-81
2023/05/25 07:27:38;;;;;;;10.50;4.80;;;15.20;1.00;;;;;;5047920;28;20538;-81
2023/05/25 07:30:09;;;;;;;8.10;4.70;;;15.40;99.90;;;;;;5050643;28;20502;-82
2023/05/25 07:32:37;;;;;;;12.93;6.00;;;15.70;99.90;;;;;;5050365;28;20491;-82
2023/05/25 07:35:11;;;;;;;11.30;5.53;;;15.90;1.00;;;;;;5050969;28;20835;-83
2023/05/25 07:37:38;;;;;;;15.73;5.70;;;16.00;1.00;;;;;;5049452;28;20456;-82
2023/05/25 07:40:06;;;;;;;10.73;5.93;;;15.90;99.90;;;;;;5049690;28;21735;-82
2023/05/25 07:42:34;;;;;;;11.60;6.27;;;15.80;1.00;;;;;;5052942;28;20452;-81
2023/05/25 07:45:01;;;;;;;9.00;5.80;;;15.60;1.00;;;;;;5056415;28;20444;-81
2023/05/25 07:47:28;;;;;;;12.50;5.23;;;15.60;99.90;;;;;;5056832;28;20457;-80
2023/05/25 07:49:54;;;;;;;13.27;5.33;;;15.60;99.90;;;;;;5052285;28;20468;-82
2023/05/25 07:52:23;;;;;;;12.63;5.23;;;15.70;99.90;;;;;;5052974;28;20458;-80
2023/05/25 07:54:50;;;;;;;11.50;5.30;;;15.90;29.40;;;;;;5054291;28;20582;-82
2023/05/25 07:57:16;;;;;;;9.03;5.17;;;16.20;99.90;;;;;;5044676;28;20492;-81
2023/05/25 07:59:44;;;;;;;11.70;4.83;;;16.50;99.90;;;;;;5043466;28;20482;-81
2023/05/25 08:02:10;;;;;;;8.97;4.80;;;16.70;1.00;;;;;;5045640;28;20457;-82
2023/05/25 08:04:37;;;;;;;9.60;5.07;;;17.00;1.00;;;;;;5045783;28;21019;-81
2023/05/25 08:07:04;;;;;;;14.37;4.70;;;17.10;20.60;;;;;;5047846;28;20557;-82
2023/05/25 08:09:32;;;;;;;9.70;4.97;;;17.20;99.90;;;;;;5050516;28;20503;-80
2023/05/25 08:12:00;;;;;;;10.00;5.73;;;17.30;99.90;;;;;;5048960;28;20462;-83
2023/05/25 08:14:27;;;;;;;10.93;5.27;;;17.30;99.90;;;;;;5050901;28;20469;-81
2023/05/25 08:16:54;;;;;;;7.70;5.00;;;17.40;99.90;;;;;;5053106;28;20936;-84
2023/05/25 08:19:21;;;;;;;8.83;4.47;;;17.50;1.00;;;;;;5037169;28;20480;-82
2023/05/25 08:21:47;;;;;;;9.90;5.07;;;17.40;9.30;;;;;;5042074;28;20860;-85
2023/05/25 08:24:14;;;;;;;12.70;5.40;;;17.40;99.90;;;;;;5056369;28;20460;-82
2023/05/25 08:26:42;;;;;;;10.43;4.40;;;17.40;99.90;;;;;;5057215;28;20459;-82
2023/05/25 08:29:09;;;;;;;10.87;5.63;;;17.40;1.00;;;;;;5061169;28;20539;-83
2023/05/25 08:31:36;;;;;;;7.50;4.57;;;17.40;99.90;;;;;;5059914;28;20492;-82
2023/05/25 08:34:03;;;;;;;9.73;5.00;;;17.50;1.00;;;;;;5059733;28;20452;-81
2023/05/25 08:36:32;;;;;;;11.87;5.37;;;17.60;1.00;;;;;;5059007;28;20570;-83
2023/05/25 08:38:59;;;;;;;10.20;5.50;;;17.70;1.00;;;;;;5060313;28;20448;-84
2023/05/25 08:41:26;;;;;;;8.70;5.57;;;17.70;1.00;;;;;;5060192;28;20845;-83
2023/05/25 08:43:54;;;;;;;10.53;4.90;;;17.80;1.00;;;;;;5059548;28;20458;-83
2023/05/25 08:46:28;;;;;;;12.40;5.80;;;17.80;1.00;;;;;;5060337;28;20450;-84
2023/05/25 08:49:00;;;;;;;10.27;5.63;;;17.80;1.00;;;;;;5059514;28;20460;-84
2023/05/25 08:51:31;;;;;;;9.37;5.20;;;17.90;1.00;;;;;;5059568;28;20560;-84
2023/05/25 08:54:03;;;;;;;8.40;5.00;;;17.80;1.00;;;;;;5058962;28;20431;-85
2023/05/25 08:56:34;;;;;;;6.53;4.13;;;17.90;1.00;;;;;;5060249;28;20877;-83
2023/05/25 08:59:07;;;;;;;9.60;4.57;;;17.90;1.00;;;;;;5060845;28;20464;-84
2023/05/25 09:01:39;;;;;;;8.63;4.77;;;18.00;1.00;;;;;;5059693;28;20555;-82
2023/05/25 09:04:06;;;;;;;9.47;5.40;;;18.00;1.00;;;;;;5059413;28;20458;-83
2023/05/25 09:06:35;;;;;;;11.00;5.27;;;18.10;1.00;;;;;;5060569;28;20454;-84
2023/05/25 09:09:04;;;;;;;11.70;6.40;;;18.20;1.00;;;;;;5059787;28;20466;-84
2023/05/25 09:11:32;;;;;;;11.63;5.37;;;18.20;1.00;;;;;;5058337;28;20482;-84
2023/05/25 09:13:59;;;;;;;9.03;5.10;;;18.30;1.00;;;;;;5059124;28;20540;-84
2023/05/25 09:16:27;;;;;;;9.83;5.30;;;18.20;1.00;;;;;;5060102;28;20488;-84
2023/05/25 09:18:54;;;;;;;12.00;4.73;;;18.20;1.00;;;;;;5060549;28;20485;-84
2023/05/25 09:21:21;;;;;;;9.50;5.20;;;18.10;1.00;;;;;;5060640;28;20537;-83
2023/05/25 09:23:49;;;;;;;12.80;4.63;;;18.20;1.00;;;;;;5059564;28;20449;-85
2023/05/25 09:26:16;;;;;;;9.13;5.40;;;18.40;1.00;;;;;;5060607;28;20539;-84
2023/05/25 09:28:46;;;;;;;12.67;4.70;;;18.50;1.00;;;;;;5060348;28;20581;-83
2023/05/25 09:31:15;;;;;;;7.20;4.23;;;18.70;1.00;;;;;;5059789;28;20478;-84
2023/05/25 09:33:45;;;;;;;7.23;4.43;;;18.60;1.00;;;;;;5059110;28;20481;-84
2023/05/25 09:36:14;;;;;;;10.03;4.53;;;18.50;1.00;;;;;;5060564;28;20488;-85
2023/05/25 09:38:43;;;;;;;12.83;4.47;;;18.40;1.00;;;;;;5061775;28;21018;-84
2023/05/25 09:41:10;;;;;;;11.23;4.80;;;18.20;1.00;;;;;;5061331;28;20475;-85
2023/05/25 09:43:37;;;;;;;7.37;4.63;;;17.90;1.00;;;;;;5074803;28;20472;-84
2023/05/25 09:46:05;;;;;;;10.47;4.53;;;17.90;1.00;;;;;;5073103;28;20515;-82
2023/05/25 09:48:31;;;;;;;10.33;5.37;;;17.90;1.00;;;;;;5069133;28;20527;-83
2023/05/25 09:51:00;;;;;;;7.80;4.87;;;17.80;1.00;;;;;;5063987;28;20564;-85
2023/05/25 09:53:27;;;;;;;8.30;3.93;;;17.60;1.00;;;;;;5060733;28;20932;-83
2023/05/25 09:55:54;;;;;;;9.87;4.87;;;17.50;1.00;;;;;;5061662;28;20866;-85
2023/05/25 09:58:23;;;;;;;9.30;4.30;;;17.60;1.00;;;;;;5062387;28;20558;-83
2023/05/25 10:00:54;;;;;;;9.53;4.10;;;17.50;1.00;;;;;;5061420;28;20477;-83
2023/05/25 10:03:20;;;;;;;11.37;4.70;;;17.40;1.00;;;;;;5059507;28;20455;-84
2023/05/25 10:05:48;;;;;;;8.77;4.10;;;17.50;1.00;;;;;;5059958;28;20455;-85
2023/05/25 10:08:20;;;;;;;7.73;4.27;;;17.60;1.00;;;;;;5060390;28;20449;-84
2023/05/25 10:10:50;;;;;;;8.70;4.83;;;17.80;1.00;;;;;;5060340;28;20509;-86
2023/05/25 10:13:22;;;;;;;7.37;4.20;;;17.90;1.00;;;;;;5058283;28;20461;-84
2023/05/25 10:15:53;;;;;;;7.93;5.10;;;17.90;1.00;;;;;;5059628;28;20478;-85
2023/05/25 10:18:24;;;;;;;10.40;5.27;;;18.00;1.00;;;;;;5060404;28;21120;-83
2023/05/25 10:20:57;;;;;;;12.83;5.13;;;18.00;1.00;;;;;;5060132;28;21052;-84
2023/05/25 10:23:28;;;;;;;9.17;3.97;;;17.90;1.00;;;;;;5059069;28;20437;-84
2023/05/25 10:26:01;;;;;;;8.83;4.60;;;18.00;1.00;;;;;;5058159;28;20542;-83
2023/05/25 10:28:30;;;;;;;8.50;5.07;;;18.00;1.00;;;;;;5059343;28;20953;-84
2023/05/25 10:30:57;;;;;;;7.13;4.83;;;17.90;1.00;;;;;;5059472;28;20477;-84
2023/05/25 10:33:24;;;;;;;9.20;4.80;;;17.90;1.00;;;;;;5058036;28;20452;-85
2023/05/25 10:35:51;;;;;;;6.90;4.93;;;18.20;1.00;;;;;;5057453;28;20539;-83
2023/05/25 10:38:19;;;;;;;11.50;5.27;;;18.30;1.00;;;;;;5058401;28;20463;-84
2023/05/25 10:40:47;;;;;;;10.03;5.63;;;18.40;1.00;;;;;;5057977;28;20470;-84
2023/05/25 10:43:14;;;;;;;8.07;4.90;;;18.30;1.00;;;;;;5057650;28;20451;-83
2023/05/25 10:45:43;;;;;;;8.70;5.43;;;18.50;1.00;;;;;;5058762;28;20841;-84
2023/05/25 10:48:13;;;;;;;9.07;5.23;;;18.70;1.00;;;;;;5058551;28;20448;-84
2023/05/25 10:50:40;;;;;;;9.87;5.60;;;19.00;1.00;;;;;;5056594;28;20471;-84
2023/05/25 10:53:08;;;;;;;12.00;5.60;;;19.10;1.00;;;;;;5058719;28;20540;-83
2023/05/25 10:56:01;;;;;;;9.33;5.63;;;20.10;1.00;;;;;;5057727;28;20514;-84
2023/05/25 10:58:29;;;;;;;7.83;4.70;;;21.60;1.00;;;;;;5058243;28;20448;-83
2023/05/25 11:01:00;;;;;;;9.97;4.83;;;22.60;1.00;;;;;;5058989;28;20495;-84
2023/05/25 11:03:56;;;;;;;9.23;5.57;;;22.30;1.00;;;;;;5057884;28;20456;-85
2023/05/25 11:06:39;;;;;;;8.53;4.80;;;22.00;1.00;;;;;;5055158;28;20490;-84
2023/05/25 11:09:06;;;;;;;6.50;4.43;;;21.70;99.90;;;;;;5057597;28;20871;-84
2023/05/25 11:12:02;;;;;;;7.83;5.03;;;21.40;99.90;;;;;;5043584;28;20985;-84
2023/05/25 11:14:30;;;;;;;9.60;6.03;;;21.00;99.90;;;;;;5038089;28;20437;-84
2023/05/25 11:17:09;;;;;;;9.70;5.33;;;20.50;99.90;;;;;;5039423;28;20492;-84
2023/05/25 11:19:47;;;;;;;6.97;4.20;;;20.00;99.90;;;;;;5038381;28;20514;-83
2023/05/25 11:22:14;;;;;;;9.40;5.57;;;19.70;99.90;;;;;;5038407;28;20457;-85
2023/05/25 11:24:43;;;;;;;8.10;5.73;;;19.60;99.90;;;;;;5056542;28;20443;-84
2023/05/25 11:27:12;;;;;;;10.10;5.07;;;19.50;99.90;;;;;;5057557;28;20500;-85
2023/05/25 11:29:40;;;;;;;10.80;5.40;;;19.40;1.00;;;;;;5057949;28;20490;-85
2023/05/25 11:32:13;;;;;;;8.93;5.40;;;19.60;1.00;;;;;;5058303;28;20448;-84
2023/05/25 11:34:45;;;;;;;10.13;4.83;;;20.00;1.00;;;;;;5057283;28;20432;-84
2023/05/25 11:37:14;;;;;;;7.40;4.20;;;20.00;1.00;;;;;;5057526;28;20478;-85
2023/05/25 11:39:41;;;;;;;9.23;4.77;;;19.80;1.00;;;;;;5059771;28;20448;-84
2023/05/25 11:42:11;;;;;;;8.67;4.67;;;19.70;1.00;;;;;;5060744;28;21093;-84
2023/05/25 11:44:38;;;;;;;10.20;5.37;;;19.50;1.00;;;;;;5055976;28;20539;-85
2023/05/25 11:47:08;;;;;;;12.27;5.67;;;19.30;1.00;;;;;;5056993;28;20471;-85
2023/05/25 11:49:40;;;;;;;9.17;5.13;;;19.20;1.00;;;;;;5057309;28;20464;-84
2023/05/25 11:52:07;;;;;;;10.23;4.97;;;19.40;1.00;;;;;;5056552;28;20448;-84
2023/05/25 11:54:34;;;;;;;12.87;5.23;;;19.50;1.00;;;;;;5056617;28;20455;-84
2023/05/25 11:57:02;;;;;;;10.97;6.37;;;19.60;1.00;;;;;;5056098;28;20875;-83
2023/05/25 11:59:30;;;;;;;9.97;5.13;;;19.80;1.00;;;;;;5056402;28;20448;-84
2023/05/25 12:01:59;;;;;;;9.30;5.23;;;20.00;1.00;;;;;;5057538;28;20832;-84
2023/05/25 12:04:26;;;;;;;10.77;5.37;;;20.00;1.00;;;;;;5060719;28;20448;-82
2023/05/25 12:06:53;;;;;;;9.53;4.70;;;19.90;1.00;;;;;;5059936;28;20883;-83
2023/05/25 12:09:21;;;;;;;10.07;6.37;;;19.70;1.00;;;;;;5061297;28;20509;-82
2023/05/25 12:11:49;;;;;;;11.37;5.70;;;19.50;1.00;;;;;;5060199;28;20471;-83
2023/05/25 12:14:15;;;;;;;12.20;4.80;;;19.20;1.00;;;;;;5059441;28;20534;-82
2023/05/25 12:16:44;;;;;;;8.13;4.90;;;19.10;1.00;;;;;;5061057;28;20479;-83
2023/05/25 12:19:11;;;;;;;11.40;4.90;;;19.10;1.00;;;;;;5061924;28;20465;-83
2023/05/25 12:21:40;;;;;;;13.77;5.93;;;19.20;1.00;;;;;;5061366;28;20476;-83
2023/05/25 12:24:07;;;;;;;7.97;5.30;;;19.40;1.00;;;;;;5060046;28;20439;-83
2023/05/25 12:26:34;;;;;;;10.73;5.03;;;19.60;1.00;;;;;;5060310;28;20447;-83
2023/05/25 12:29:04;;;;;;;9.50;4.90;;;19.60;1.00;;;;;;5060108;28;20455;-83
2023/05/25 12:31:33;;;;;;;8.80;5.80;;;19.60;1.00;;;;;;5060442;28;20477;-83
2023/05/25 12:34:19;;;;;;;7.57;5.00;;;19.40;1.00;;;;;;5059611;28;20456;-83
2023/05/25 12:36:49;;;;;;;10.73;5.40;;;19.50;1.00;;;;;;5060088;28;21034;-83
2023/05/25 12:39:37;;;;;;;10.53;5.10;;;19.80;1.00;;;;;;5058414;28;20951;-83
2023/05/25 12:42:05;;;;;;;7.93;4.80;;;20.10;1.00;;;;;;5058730;28;20476;-84
2023/05/25 12:44:34;;;;;;;8.53;4.87;;;20.50;1.00;;;;;;5059667;28;20467;-84
2023/05/25 12:47:13;;;;;;;9.77;4.70;;;20.50;1.00;;;;;;5061135;28;20653;-84
2023/05/25 12:49:43;;;;;;;8.10;3.97;;;20.20;1.00;;;;;;5040166;28;20441;-84
2023/05/25 12:52:11;;;;;;;11.47;4.70;;;20.10;1.00;;;;;;5060265;28;20490;-84